sensor_id;sensor_type;location;lat;lon;timestamp;pressure;altitude;pressure_sealevel;temperature;humidity
79752;BME280;69234;47.446;21.636;2023-05-07T00:00:15;100597.03;;;15.20;88.23
79752;BME280;69234;47.446;21.636;2023-05-07T00:00:48;100586.84;;;15.14;87.49
79752;BME280;69234;47.446;21.636;2023-05-07T00:01:20;100601.75;;;15.18;87.70
79752;BME280;69234;47.446;21.636;2023-05-07T00:01:50;100600.44;;;15.22;88.46
79752;BME280;69234;47.446;21.636;2023-05-07T00:02:22;100603.84;;;15.24;88.00
79752;BME280;69234;47.446;21.636;2023-05-07T00:02:53;100601.47;;;15.21;87.86
79752;BME280;69234;47.446;21.636;2023-05-07T00:03:23;100602.13;;;15.23;88.67
79752;BME280;69234;47.446;21.636;2023-05-07T00:03:55;100594.19;;;15.21;87.79
79752;BME280;69234;47.446;21.636;2023-05-07T00:04:26;100598.03;;;15.19;87.94
79752;BME280;69234;47.446;21.636;2023-05-07T00:04:57;100600.56;;;15.20;88.20
79752;BME280;69234;47.446;21.636;2023-05-07T00:05:28;100604.16;;;15.21;88.53
79752;BME280;69234;47.446;21.636;2023-05-07T00:05:59;100599.91;;;15.18;88.24
79752;BME280;69234;47.446;21.636;2023-05-07T00:06:31;100600.91;;;15.17;88.37
79752;BME280;69234;47.446;21.636;2023-05-07T00:07:03;100602.59;;;15.18;88.42
79752;BME280;69234;47.446;21.636;2023-05-07T00:07:34;100607.31;;;15.16;88.72
79752;BME280;69234;47.446;21.636;2023-05-07T00:08:05;100608.16;;;15.17;88.44
79752;BME280;69234;47.446;21.636;2023-05-07T00:08:35;100606.16;;;15.19;89.25
79752;BME280;69234;47.446;21.636;2023-05-07T00:09:06;100612.72;;;15.16;89.19
79752;BME280;69234;47.446;21.636;2023-05-07T00:09:37;100607.63;;;15.13;89.84
79752;BME280;69234;47.446;21.636;2023-05-07T00:10:09;100609.16;;;15.16;89.70
79752;BME280;69234;47.446;21.636;2023-05-07T00:10:41;100604.06;;;15.13;88.79
79752;BME280;69234;47.446;21.636;2023-05-07T00:11:11;100606.63;;;15.14;89.66
79752;BME280;69234;47.446;21.636;2023-05-07T00:11:42;100605.09;;;15.12;89.71
79752;BME280;69234;47.446;21.636;2023-05-07T00:12:13;100599.13;;;15.08;89.90
79752;BME280;69234;47.446;21.636;2023-05-07T00:12:44;100607.63;;;15.13;89.31
79752;BME280;69234;47.446;21.636;2023-05-07T00:13:15;100611.03;;;15.15;89.24
79752;BME280;69234;47.446;21.636;2023-05-07T00:13:47;100605.09;;;15.12;89.48
79752;BME280;69234;47.446;21.636;2023-05-07T00:14:18;100610.19;;;15.15;89.41
79752;BME280;69234;47.446;21.636;2023-05-07T00:14:48;100608.16;;;15.17;89.02
79752;BME280;69234;47.446;21.636;2023-05-07T00:15:19;100598.66;;;15.13;89.50
79752;BME280;69234;47.446;21.636;2023-05-07T00:15:50;100604.78;;;15.15;89.49
79752;BME280;69234;47.446;21.636;2023-05-07T00:16:21;100610.88;;;15.17;88.99
79752;BME280;69234;47.446;21.636;2023-05-07T00:16:51;100616.44;;;15.15;89.09
79752;BME280;69234;47.446;21.636;2023-05-07T00:17:22;100611.19;;;15.14;89.64
79752;BME280;69234;47.446;21.636;2023-05-07T00:17:53;100609.16;;;15.16;89.19
79752;BME280;69234;47.446;21.636;2023-05-07T00:18:24;100616.13;;;15.18;89.93
79752;BME280;69234;47.446;21.636;2023-05-07T00:18:55;100609.47;;;15.13;89.63
79752;BME280;69234;47.446;21.636;2023-05-07T00:19:26;100607.47;;;15.15;90.15
79752;BME280;69234;47.446;21.636;2023-05-07T00:19:57;100602.69;;;15.09;90.32
79752;BME280;69234;47.446;21.636;2023-05-07T00:20:27;100606.78;;;15.13;90.03
79752;BME280;69234;47.446;21.636;2023-05-07T00:20:58;100604.53;;;15.08;89.89
79752;BME280;69234;47.446;21.636;2023-05-07T00:21:29;100608.31;;;15.15;89.32
79752;BME280;69234;47.446;21.636;2023-05-07T00:22:00;100605.38;;;15.09;90.03
79752;BME280;69234;47.446;21.636;2023-05-07T00:22:31;100600.81;;;15.09;90.76
79752;BME280;69234;47.446;21.636;2023-05-07T00:23:02;100600.28;;;15.06;90.36
79752;BME280;69234;47.446;21.636;2023-05-07T00:23:33;100602.69;;;15.09;90.37
79752;BME280;69234;47.446;21.636;2023-05-07T00:24:04;100608.50;;;15.14;89.77
79752;BME280;69234;47.446;21.636;2023-05-07T00:24:35;100608.50;;;15.14;89.64
79752;BME280;69234;47.446;21.636;2023-05-07T00:25:06;100607.97;;;15.10;89.81
79752;BME280;69234;47.446;21.636;2023-05-07T00:25:36;100615.19;;;15.10;90.24
79752;BME280;69234;47.446;21.636;2023-05-07T00:26:07;100608.41;;;15.06;90.23
79752;BME280;69234;47.446;21.636;2023-05-07T00:26:38;100603.47;;;15.01;89.92
79752;BME280;69234;47.446;21.636;2023-05-07T00:27:09;100611.94;;;15.06;89.83
79752;BME280;69234;47.446;21.636;2023-05-07T00:27:40;100616.22;;;15.09;90.12
79752;BME280;69234;47.446;21.636;2023-05-07T00:28:10;100610.50;;;15.12;89.41
79752;BME280;69234;47.446;21.636;2023-05-07T00:28:41;100609.78;;;15.10;90.37
79752;BME280;69234;47.446;21.636;2023-05-07T00:29:12;100612.50;;;15.10;89.99
79752;BME280;69234;47.446;21.636;2023-05-07T00:29:43;100604.31;;;15.02;89.77
79752;BME280;69234;47.446;21.636;2023-05-07T00:30:14;100613.13;;;15.04;89.57
79752;BME280;69234;47.446;21.636;2023-05-07T00:30:45;100612.25;;;15.03;89.93
79752;BME280;69234;47.446;21.636;2023-05-07T00:31:15;100611.41;;;15.03;89.56
79752;BME280;69234;47.446;21.636;2023-05-07T00:31:46;100614.53;;;15.08;90.38
79752;BME280;69234;47.446;21.636;2023-05-07T00:32:17;100604.72;;;15.07;90.49
79752;BME280;69234;47.446;21.636;2023-05-07T00:32:47;100607.72;;;15.04;90.33
79752;BME280;69234;47.446;21.636;2023-05-07T00:33:19;100611.28;;;15.04;90.24
79752;BME280;69234;47.446;21.636;2023-05-07T00:33:51;100608.03;;;15.01;89.71
79752;BME280;69234;47.446;21.636;2023-05-07T00:34:22;100606.16;;;15.01;89.28
79752;BME280;69234;47.446;21.636;2023-05-07T00:34:52;100611.41;;;15.03;90.22
79752;BME280;69234;47.446;21.636;2023-05-07T00:35:23;100608.03;;;15.01;89.66
79752;BME280;69234;47.446;21.636;2023-05-07T00:35:54;100606.47;;;14.98;89.46
79752;BME280;69234;47.446;21.636;2023-05-07T00:36:25;100614.28;;;15.01;89.74
79752;BME280;69234;47.446;21.636;2023-05-07T00:36:56;100615.44;;;14.98;90.65
79752;BME280;69234;47.446;21.636;2023-05-07T00:37:27;100617.00;;;15.01;90.37
79752;BME280;69234;47.446;21.636;2023-05-07T00:37:58;100617.13;;;14.99;89.82
79752;BME280;69234;47.446;21.636;2023-05-07T00:38:29;100613.44;;;15.01;90.41
79752;BME280;69234;47.446;21.636;2023-05-07T00:39:00;100618.13;;;14.98;89.69
79752;BME280;69234;47.446;21.636;2023-05-07T00:39:34;100612.59;;;15.00;90.17
79752;BME280;69234;47.446;21.636;2023-05-07T00:40:06;100614.28;;;15.01;90.52
79752;BME280;69234;47.446;21.636;2023-05-07T00:40:38;100612.72;;;14.98;90.67
79752;BME280;69234;47.446;21.636;2023-05-07T00:41:08;100619.69;;;15.01;90.78
79752;BME280;69234;47.446;21.636;2023-05-07T00:41:39;100613.88;;;14.96;89.90
79752;BME280;69234;47.446;21.636;2023-05-07T00:42:10;100608.63;;;14.94;89.92
79752;BME280;69234;47.446;21.636;2023-05-07T00:42:41;100618.84;;;15.01;89.61
79752;BME280;69234;47.446;21.636;2023-05-07T00:43:11;100614.28;;;15.01;90.51
79752;BME280;69234;47.446;21.636;2023-05-07T00:43:43;100607.31;;;14.98;89.75
79752;BME280;69234;47.446;21.636;2023-05-07T00:44:14;100611.34;;;14.94;90.23
79752;BME280;69234;47.446;21.636;2023-05-07T00:44:44;100606.09;;;14.93;90.57
79752;BME280;69234;47.446;21.636;2023-05-07T00:45:16;100612.72;;;14.98;89.47
79752;BME280;69234;47.446;21.636;2023-05-07T00:45:50;100611.72;;;14.99;90.00
79752;BME280;69234;47.446;21.636;2023-05-07T00:46:22;100605.63;;;14.97;90.58
79752;BME280;69234;47.446;21.636;2023-05-07T00:46:54;100619.38;;;15.04;89.92
79752;BME280;69234;47.446;21.636;2023-05-07T00:47:25;100614.13;;;15.03;90.16
79752;BME280;69234;47.446;21.636;2023-05-07T00:47:59;100618.53;;;15.04;90.30
79752;BME280;69234;47.446;21.636;2023-05-07T00:48:30;100617.84;;;15.02;90.09
79752;BME280;69234;47.446;21.636;2023-05-07T00:49:01;100615.84;;;15.04;89.62
79752;BME280;69234;47.446;21.636;2023-05-07T00:49:39;100609.41;;;15.05;89.07
79752;BME280;69234;47.446;21.636;2023-05-07T00:50:11;100598.19;;;14.99;89.92
79752;BME280;69234;47.446;21.636;2023-05-07T00:50:43;100608.56;;;15.04;89.06
79752;BME280;69234;47.446;21.636;2023-05-07T00:51:14;100605.69;;;15.06;88.83
79752;BME280;69234;47.446;21.636;2023-05-07T00:51:46;100599.59;;;15.04;89.03
79752;BME280;69234;47.446;21.636;2023-05-07T00:52:20;100606.53;;;15.06;88.70
79752;BME280;69234;47.446;21.636;2023-05-07T00:52:52;100603.69;;;15.08;88.82
79752;BME280;69234;47.446;21.636;2023-05-07T00:53:23;100603.69;;;15.08;89.60
79752;BME280;69234;47.446;21.636;2023-05-07T00:53:55;100604.72;;;15.07;89.26
79752;BME280;69234;47.446;21.636;2023-05-07T00:54:26;100598.59;;;15.05;89.37
79752;BME280;69234;47.446;21.636;2023-05-07T00:54:57;100601.66;;;15.10;89.29
79752;BME280;69234;47.446;21.636;2023-05-07T00:55:28;100599.97;;;15.09;88.14
79752;BME280;69234;47.446;21.636;2023-05-07T00:55:59;100597.28;;;15.09;89.00
79752;BME280;69234;47.446;21.636;2023-05-07T00:56:31;100601.66;;;15.10;88.28
79752;BME280;69234;47.446;21.636;2023-05-07T00:57:03;100600.69;;;15.11;88.22
79752;BME280;69234;47.446;21.636;2023-05-07T00:57:40;100609.66;;;15.11;88.88
79752;BME280;69234;47.446;21.636;2023-05-07T00:58:11;100612.50;;;15.10;88.94
79752;BME280;69234;47.446;21.636;2023-05-07T00:58:42;100601.84;;;15.08;88.17
79752;BME280;69234;47.446;21.636;2023-05-07T00:59:13;100602.00;;;15.07;87.96
79752;BME280;69234;47.446;21.636;2023-05-07T00:59:44;100606.09;;;15.11;87.99
79752;BME280;69234;47.446;21.636;2023-05-07T01:00:15;100599.84;;;15.10;88.72
79752;BME280;69234;47.446;21.636;2023-05-07T01:00:46;100607.78;;;15.12;87.79
79752;BME280;69234;47.446;21.636;2023-05-07T01:01:16;100608.50;;;15.14;87.64
79752;BME280;69234;47.446;21.636;2023-05-07T01:01:47;100607.47;;;15.15;87.71
79752;BME280;69234;47.446;21.636;2023-05-07T01:02:18;100615.06;;;15.11;88.64
79752;BME280;69234;47.446;21.636;2023-05-07T01:02:49;100614.88;;;15.13;87.80
79752;BME280;69234;47.446;21.636;2023-05-07T01:03:20;100614.88;;;15.13;87.65
79752;BME280;69234;47.446;21.636;2023-05-07T01:03:51;100610.19;;;15.15;88.41
79752;BME280;69234;47.446;21.636;2023-05-07T01:04:22;100616.28;;;15.17;87.47
79752;BME280;69234;47.446;21.636;2023-05-07T01:04:53;100616.75;;;15.12;87.17
79752;BME280;69234;47.446;21.636;2023-05-07T01:05:26;100614.75;;;15.14;87.96
79752;BME280;69234;47.446;21.636;2023-05-07T01:05:59;100616.44;;;15.15;87.33
79752;BME280;69234;47.446;21.636;2023-05-07T01:06:32;100617.22;;;15.08;88.21
79752;BME280;69234;47.446;21.636;2023-05-07T01:07:03;100616.75;;;15.12;87.87
79752;BME280;69234;47.446;21.636;2023-05-07T01:07:37;100614.22;;;15.11;87.22
79752;BME280;69234;47.446;21.636;2023-05-07T01:08:08;100617.47;;;15.14;87.83
79752;BME280;69234;47.446;21.636;2023-05-07T01:08:41;100621.84;;;15.15;87.72
79752;BME280;69234;47.446;21.636;2023-05-07T01:09:12;100625.41;;;15.16;88.39
79752;BME280;69234;47.446;21.636;2023-05-07T01:09:44;100621.16;;;15.13;87.97
79752;BME280;69234;47.446;21.636;2023-05-07T01:10:15;100624.41;;;15.17;87.62
79752;BME280;69234;47.446;21.636;2023-05-07T01:10:48;100617.16;;;15.17;87.61
79752;BME280;69234;47.446;21.636;2023-05-07T01:11:19;100621.00;;;15.15;87.09
79752;BME280;69234;47.446;21.636;2023-05-07T01:11:51;100613.56;;;15.17;88.00
79752;BME280;69234;47.446;21.636;2023-05-07T01:12:23;100614.59;;;15.16;87.19
79752;BME280;69234;47.446;21.636;2023-05-07T01:12:55;100614.75;;;15.14;88.11
79752;BME280;69234;47.446;21.636;2023-05-07T01:13:27;100611.34;;;15.12;88.25
79752;BME280;69234;47.446;21.636;2023-05-07T01:13:59;100611.34;;;15.12;87.83
79752;BME280;69234;47.446;21.636;2023-05-07T01:14:30;100610.50;;;15.12;87.21
79752;BME280;69234;47.446;21.636;2023-05-07T01:15:06;100605.25;;;15.10;87.42
79752;BME280;69234;47.446;21.636;2023-05-07T01:15:38;100610.50;;;15.12;88.28
79752;BME280;69234;47.446;21.636;2023-05-07T01:16:11;100605.38;;;15.09;87.41
79752;BME280;69234;47.446;21.636;2023-05-07T01:16:42;100609.09;;;15.08;87.27
79752;BME280;69234;47.446;21.636;2023-05-07T01:17:13;100613.50;;;15.09;87.24
79752;BME280;69234;47.446;21.636;2023-05-07T01:17:44;100615.19;;;15.10;87.95
79752;BME280;69234;47.446;21.636;2023-05-07T01:18:24;100604.13;;;15.03;87.98
79752;BME280;69234;47.446;21.636;2023-05-07T01:18:56;100618.06;;;15.08;88.38
79752;BME280;69234;47.446;21.636;2023-05-07T01:19:28;100604.00;;;15.05;87.89
79752;BME280;69234;47.446;21.636;2023-05-07T01:20:00;100610.78;;;15.09;87.37
79752;BME280;69234;47.446;21.636;2023-05-07T01:20:31;100614.53;;;15.08;87.96
79752;BME280;69234;47.446;21.636;2023-05-07T01:21:04;100611.66;;;15.09;88.36
79752;BME280;69234;47.446;21.636;2023-05-07T01:21:37;100611.94;;;15.06;88.32
79752;BME280;69234;47.446;21.636;2023-05-07T01:22:11;100603.16;;;15.04;87.11
79752;BME280;69234;47.446;21.636;2023-05-07T01:22:52;100601.78;;;15.00;87.35
79752;BME280;69234;47.446;21.636;2023-05-07T01:23:24;100611.94;;;15.06;87.82
79752;BME280;69234;47.446;21.636;2023-05-07T01:23:56;100602.69;;;15.09;87.21
79752;BME280;69234;47.446;21.636;2023-05-07T01:24:28;100611.81;;;15.08;87.51
79752;BME280;69234;47.446;21.636;2023-05-07T01:24:59;100604.53;;;15.08;87.29
79752;BME280;69234;47.446;21.636;2023-05-07T01:25:32;100608.56;;;15.04;86.96
79752;BME280;69234;47.446;21.636;2023-05-07T01:26:05;100612.81;;;15.07;87.19
79752;BME280;69234;47.446;21.636;2023-05-07T01:26:41;100614.53;;;15.08;86.92
79752;BME280;69234;47.446;21.636;2023-05-07T01:27:12;100609.09;;;15.08;87.67
79752;BME280;69234;47.446;21.636;2023-05-07T01:27:43;100613.38;;;15.10;86.79
79752;BME280;69234;47.446;21.636;2023-05-07T01:28:14;100613.66;;;15.07;86.83
79752;BME280;69234;47.446;21.636;2023-05-07T01:28:47;100617.06;;;15.09;87.85
79752;BME280;69234;47.446;21.636;2023-05-07T01:29:17;100608.09;;;15.09;86.56
79752;BME280;69234;47.446;21.636;2023-05-07T01:29:49;100613.38;;;15.10;86.11
79752;BME280;69234;47.446;21.636;2023-05-07T01:30:22;100602.97;;;15.06;86.25
79752;BME280;69234;47.446;21.636;2023-05-07T01:31:01;100614.34;;;15.09;86.87
79752;BME280;69234;47.446;21.636;2023-05-07T01:31:34;100610.50;;;15.12;86.12
79752;BME280;69234;47.446;21.636;2023-05-07T01:32:07;100601.28;;;15.05;85.98
79752;BME280;69234;47.446;21.636;2023-05-07T01:32:53;100604.00;;;15.05;86.70
79752;BME280;69234;47.446;21.636;2023-05-07T01:33:31;100606.22;;;15.09;85.37
79752;BME280;69234;47.446;21.636;2023-05-07T01:34:04;100612.34;;;15.11;85.76
79752;BME280;69234;47.446;21.636;2023-05-07T01:34:37;100608.81;;;15.11;85.58
79752;BME280;69234;47.446;21.636;2023-05-07T01:35:12;100606.94;;;15.11;85.77
79752;BME280;69234;47.446;21.636;2023-05-07T01:35:49;100606.09;;;15.11;85.72
79752;BME280;69234;47.446;21.636;2023-05-07T01:36:22;100610.50;;;15.12;86.49
79752;BME280;69234;47.446;21.636;2023-05-07T01:36:56;100596.59;;;15.07;86.42
79752;BME280;69234;47.446;21.636;2023-05-07T01:37:29;100604.38;;;15.10;86.05
79752;BME280;69234;47.446;21.636;2023-05-07T01:38:00;100603.38;;;15.11;85.29
79752;BME280;69234;47.446;21.636;2023-05-07T01:38:36;100605.09;;;15.12;84.86
79752;BME280;69234;47.446;21.636;2023-05-07T01:39:09;100602.38;;;15.12;85.72
79752;BME280;69234;47.446;21.636;2023-05-07T01:39:42;100606.78;;;15.13;86.09
79752;BME280;69234;47.446;21.636;2023-05-07T01:40:13;100613.03;;;15.13;85.75
79752;BME280;69234;47.446;21.636;2023-05-07T01:40:44;100605.38;;;15.09;85.38
79752;BME280;69234;47.446;21.636;2023-05-07T01:41:16;100606.94;;;15.11;85.60
79752;BME280;69234;47.446;21.636;2023-05-07T01:41:47;100604.22;;;15.11;86.39
79752;BME280;69234;47.446;21.636;2023-05-07T01:42:17;100605.94;;;15.12;86.86
79752;BME280;69234;47.446;21.636;2023-05-07T01:42:48;100603.38;;;15.11;86.11
79752;BME280;69234;47.446;21.636;2023-05-07T01:43:19;100600.81;;;15.09;86.11
79752;BME280;69234;47.446;21.636;2023-05-07T01:43:53;100594.19;;;15.04;85.79
79752;BME280;69234;47.446;21.636;2023-05-07T01:44:25;100601.00;;;15.08;86.46
79752;BME280;69234;47.446;21.636;2023-05-07T01:44:56;100602.13;;;15.05;86.87
79752;BME280;69234;47.446;21.636;2023-05-07T01:45:27;100597.56;;;15.06;87.08
79752;BME280;69234;47.446;21.636;2023-05-07T01:45:58;100595.19;;;15.03;86.49
79752;BME280;69234;47.446;21.636;2023-05-07T01:46:31;100606.00;;;15.03;86.00
79752;BME280;69234;47.446;21.636;2023-05-07T01:47:03;100602.13;;;15.05;86.44
79752;BME280;69234;47.446;21.636;2023-05-07T01:47:36;100600.28;;;15.06;85.57
79752;BME280;69234;47.446;21.636;2023-05-07T01:48:09;100602.97;;;15.06;85.88
79752;BME280;69234;47.446;21.636;2023-05-07T01:48:41;100600.59;;;15.03;85.81
79752;BME280;69234;47.446;21.636;2023-05-07T01:49:17;100596.19;;;15.02;86.02
79752;BME280;69234;47.446;21.636;2023-05-07T01:49:47;100594.63;;;14.99;85.92
79752;BME280;69234;47.446;21.636;2023-05-07T01:50:19;100603.47;;;15.01;86.20
79752;BME280;69234;47.446;21.636;2023-05-07T01:50:51;100599.19;;;14.98;86.61
79752;BME280;69234;47.446;21.636;2023-05-07T01:51:22;100597.19;;;15.01;85.37
79752;BME280;69234;47.446;21.636;2023-05-07T01:51:53;100592.63;;;15.01;85.72
79752;BME280;69234;47.446;21.636;2023-05-07T01:52:24;100588.53;;;14.97;86.67
79752;BME280;69234;47.446;21.636;2023-05-07T01:52:55;100584.81;;;14.98;85.91
79752;BME280;69234;47.446;21.636;2023-05-07T01:53:28;100582.44;;;14.95;86.59
79752;BME280;69234;47.446;21.636;2023-05-07T01:53:59;100581.59;;;14.94;86.14
79752;BME280;69234;47.446;21.636;2023-05-07T01:54:31;100592.09;;;14.97;86.54
79752;BME280;69234;47.446;21.636;2023-05-07T01:55:02;100584.13;;;14.96;85.69
79752;BME280;69234;47.446;21.636;2023-05-07T01:55:33;100589.53;;;14.96;86.26
79752;BME280;69234;47.446;21.636;2023-05-07T01:56:04;100596.66;;;14.97;86.23
79752;BME280;69234;47.446;21.636;2023-05-07T01:56:36;100586.16;;;14.94;85.86
79752;BME280;69234;47.446;21.636;2023-05-07T01:57:08;100589.00;;;14.92;85.54
79752;BME280;69234;47.446;21.636;2023-05-07T01:57:38;100591.56;;;14.94;86.26
79752;BME280;69234;47.446;21.636;2023-05-07T01:58:09;100589.88;;;14.93;86.25
79752;BME280;69234;47.446;21.636;2023-05-07T01:58:41;100589.53;;;14.96;85.94
79752;BME280;69234;47.446;21.636;2023-05-07T01:59:12;100597.50;;;14.97;85.65
79752;BME280;69234;47.446;21.636;2023-05-07T01:59:44;100590.72;;;14.93;85.43
79752;BME280;69234;47.446;21.636;2023-05-07T02:00:15;100593.56;;;14.92;85.36
79752;BME280;69234;47.446;21.636;2023-05-07T02:00:49;100596.41;;;14.90;85.75
79752;BME280;69234;47.446;21.636;2023-05-07T02:01:19;100582.19;;;14.88;85.01
79752;BME280;69234;47.446;21.636;2023-05-07T02:01:51;100592.56;;;14.93;85.38
79752;BME280;69234;47.446;21.636;2023-05-07T02:02:22;100585.59;;;14.90;85.84
79752;BME280;69234;47.446;21.636;2023-05-07T02:02:53;100592.78;;;14.99;85.22
79752;BME280;69234;47.446;21.636;2023-05-07T02:03:35;100580.88;;;14.92;86.11
79752;BME280;69234;47.446;21.636;2023-05-07T02:04:13;100592.00;;;14.89;86.10
79752;BME280;69234;47.446;21.636;2023-05-07T02:04:44;100584.22;;;14.86;85.47
79752;BME280;69234;47.446;21.636;2023-05-07T02:05:16;100590.16;;;14.90;85.81
79752;BME280;69234;47.446;21.636;2023-05-07T02:05:48;100595.41;;;14.91;85.32
79752;BME280;69234;47.446;21.636;2023-05-07T02:06:39;100594.69;;;14.89;85.32
79752;BME280;69234;47.446;21.636;2023-05-07T02:07:11;100602.38;;;14.94;85.70
79752;BME280;69234;47.446;21.636;2023-05-07T02:07:42;100600.97;;;14.90;85.86
79752;BME280;69234;47.446;21.636;2023-05-07T02:08:12;100598.28;;;14.90;85.56
79752;BME280;69234;47.446;21.636;2023-05-07T02:08:43;100599.13;;;14.90;85.35
79752;BME280;69234;47.446;21.636;2023-05-07T02:09:16;100594.69;;;14.89;85.69
79752;BME280;69234;47.446;21.636;2023-05-07T02:09:49;100591.31;;;14.87;86.08
79752;BME280;69234;47.446;21.636;2023-05-07T02:10:19;100591.31;;;14.87;84.86
79752;BME280;69234;47.446;21.636;2023-05-07T02:10:50;100592.31;;;14.86;85.42
79752;BME280;69234;47.446;21.636;2023-05-07T02:11:22;100600.50;;;14.94;84.80
79752;BME280;69234;47.446;21.636;2023-05-07T02:11:52;100596.97;;;14.94;85.83
79752;BME280;69234;47.446;21.636;2023-05-07T02:12:24;100599.81;;;14.92;86.45
79752;BME280;69234;47.446;21.636;2023-05-07T02:12:55;100594.69;;;14.89;86.11
79752;BME280;69234;47.446;21.636;2023-05-07T02:13:32;100592.88;;;14.90;85.18
79752;BME280;69234;47.446;21.636;2023-05-07T02:14:04;100601.66;;;14.92;85.56
79752;BME280;69234;47.446;21.636;2023-05-07T02:14:35;100596.41;;;14.90;84.96
79752;BME280;69234;47.446;21.636;2023-05-07T02:15:07;100586.22;;;14.84;84.98
79752;BME280;69234;47.446;21.636;2023-05-07T02:15:38;100596.41;;;14.90;85.96
79752;BME280;69234;47.446;21.636;2023-05-07T02:16:09;100585.38;;;14.84;85.59
79752;BME280;69234;47.446;21.636;2023-05-07T02:16:42;100594.16;;;14.86;84.92
79752;BME280;69234;47.446;21.636;2023-05-07T02:17:15;100588.75;;;14.86;84.61
79752;BME280;69234;47.446;21.636;2023-05-07T02:18:12;100591.44;;;14.86;84.61
79752;BME280;69234;47.446;21.636;2023-05-07T02:18:42;100596.56;;;14.89;84.22
79752;BME280;69234;47.446;21.636;2023-05-07T02:19:13;100594.69;;;14.89;85.02
79752;BME280;69234;47.446;21.636;2023-05-07T02:19:44;100594.03;;;14.87;84.57
79752;BME280;69234;47.446;21.636;2023-05-07T02:20:15;100589.63;;;14.86;85.54
79752;BME280;69234;47.446;21.636;2023-05-07T02:20:46;100590.59;;;14.85;84.42
79752;BME280;69234;47.446;21.636;2023-05-07T02:21:17;100585.91;;;14.87;84.56
79752;BME280;69234;47.446;21.636;2023-05-07T02:21:48;100592.00;;;14.89;85.28
79752;BME280;69234;47.446;21.636;2023-05-07T02:22:19;100589.28;;;14.89;85.23
79752;BME280;69234;47.446;21.636;2023-05-07T02:22:49;100591.00;;;14.90;85.57
79752;BME280;69234;47.446;21.636;2023-05-07T02:23:20;100587.59;;;14.88;84.45
79752;BME280;69234;47.446;21.636;2023-05-07T02:23:51;100589.63;;;14.86;84.91
79752;BME280;69234;47.446;21.636;2023-05-07T02:24:22;100583.56;;;14.92;84.96
79752;BME280;69234;47.446;21.636;2023-05-07T02:24:53;100578.81;;;14.86;85.03
79752;BME280;69234;47.446;21.636;2023-05-07T02:25:23;100582.91;;;14.90;84.25
79752;BME280;69234;47.446;21.636;2023-05-07T02:25:54;100582.06;;;14.90;83.89
79752;BME280;69234;47.446;21.636;2023-05-07T02:26:25;100583.88;;;14.89;84.16
79752;BME280;69234;47.446;21.636;2023-05-07T02:26:56;100587.47;;;14.90;84.40
79752;BME280;69234;47.446;21.636;2023-05-07T02:27:27;100581.34;;;14.88;84.33
79752;BME280;69234;47.446;21.636;2023-05-07T02:27:58;100583.03;;;14.89;84.16
79752;BME280;69234;47.446;21.636;2023-05-07T02:28:38;100576.72;;;14.80;84.56
79752;BME280;69234;47.446;21.636;2023-05-07T02:29:10;100577.38;;;14.82;83.91
79752;BME280;69234;47.446;21.636;2023-05-07T02:29:42;100582.78;;;14.82;84.91
79752;BME280;69234;47.446;21.636;2023-05-07T02:30:14;100582.78;;;14.82;85.10
79752;BME280;69234;47.446;21.636;2023-05-07T02:30:45;100585.75;;;14.89;84.22
79752;BME280;69234;47.446;21.636;2023-05-07T02:31:16;100591.00;;;14.90;85.09
79752;BME280;69234;47.446;21.636;2023-05-07T02:31:46;100578.81;;;14.86;85.16
79752;BME280;69234;47.446;21.636;2023-05-07T02:32:21;100581.81;;;14.83;84.51
79752;BME280;69234;47.446;21.636;2023-05-07T02:32:53;100580.09;;;14.82;85.07
79752;BME280;69234;47.446;21.636;2023-05-07T02:33:24;100580.81;;;14.84;85.71
79752;BME280;69234;47.446;21.636;2023-05-07T02:33:55;100587.75;;;14.87;86.02
79752;BME280;69234;47.446;21.636;2023-05-07T02:34:26;100585.38;;;14.84;85.87
79752;BME280;69234;47.446;21.636;2023-05-07T02:34:57;100582.97;;;14.81;85.77
79752;BME280;69234;47.446;21.636;2023-05-07T02:35:28;100588.06;;;14.84;85.71
79752;BME280;69234;47.446;21.636;2023-05-07T02:36:09;100577.56;;;14.81;85.72
79752;BME280;69234;47.446;21.636;2023-05-07T02:36:45;100587.53;;;14.80;86.05
79752;BME280;69234;47.446;21.636;2023-05-07T02:37:18;100572.63;;;14.76;85.93
79752;BME280;69234;47.446;21.636;2023-05-07T02:37:49;100589.22;;;14.81;86.25
79752;BME280;69234;47.446;21.636;2023-05-07T02:38:20;100581.28;;;14.80;86.29
79752;BME280;69234;47.446;21.636;2023-05-07T02:38:51;100574.13;;;14.79;86.07
79752;BME280;69234;47.446;21.636;2023-05-07T02:39:21;100577.38;;;14.82;86.01
79752;BME280;69234;47.446;21.636;2023-05-07T02:39:52;100574.06;;;14.70;85.66
79752;BME280;69234;47.446;21.636;2023-05-07T02:40:23;100584.28;;;14.77;85.99
79752;BME280;69234;47.446;21.636;2023-05-07T02:40:54;100584.97;;;14.79;86.06
79752;BME280;69234;47.446;21.636;2023-05-07T02:41:24;100580.56;;;14.78;85.81
79752;BME280;69234;47.446;21.636;2023-05-07T02:41:55;100570.50;;;14.70;86.01
79752;BME280;69234;47.446;21.636;2023-05-07T02:42:26;100581.56;;;14.77;85.39
79752;BME280;69234;47.446;21.636;2023-05-07T02:42:57;100581.56;;;14.77;85.99
79752;BME280;69234;47.446;21.636;2023-05-07T02:43:28;100583.44;;;14.76;85.49
79752;BME280;69234;47.446;21.636;2023-05-07T02:43:59;100582.00;;;14.72;85.44
79752;BME280;69234;47.446;21.636;2023-05-07T02:44:30;100581.56;;;14.77;84.59
79752;BME280;69234;47.446;21.636;2023-05-07T02:45:02;100582.41;;;14.77;85.61